sensor_id;sensor_type;location;lat;lon;timestamp;P1;durP1;ratioP1;P2;durP2;ratioP2
38901;SDS011;24661;53.566;9.910;2023-05-07T00:00:45;12.77;;;10.33;;
38901;SDS011;24661;53.566;9.910;2023-05-07T00:03:10;14.13;;;9.30;;
38901;SDS011;24661;53.566;9.910;2023-05-07T00:05:36;12.97;;;9.10;;
38901;SDS011;24661;53.566;9.910;2023-05-07T00:08:02;11.93;;;9.40;;
38901;SDS011;24661;53.566;9.910;2023-05-07T00:10:29;14.37;;;10.47;;
38901;SDS011;24661;53.566;9.910;2023-05-07T00:12:54;11.87;;;9.20;;
38901;SDS011;24661;53.566;9.910;2023-05-07T00:15:20;12.27;;;8.53;;
38901;SDS011;24661;53.566;9.910;2023-05-07T00:17:46;13.03;;;9.63;;
38901;SDS011;24661;53.566;9.910;2023-05-07T00:20:11;14.30;;;11.20;;
38901;SDS011;24661;53.566;9.910;2023-05-07T00:22:37;13.93;;;10.37;;
38901;SDS011;24661;53.566;9.910;2023-05-07T00:25:04;14.00;;;10.30;;
38901;SDS011;24661;53.566;9.910;2023-05-07T00:27:30;16.47;;;10.93;;
38901;SDS011;24661;53.566;9.910;2023-05-07T00:29:56;12.90;;;9.60;;
38901;SDS011;24661;53.566;9.910;2023-05-07T00:32:22;11.53;;;8.57;;
38901;SDS011;24661;53.566;9.910;2023-05-07T00:34:47;12.23;;;9.20;;
38901;SDS011;24661;53.566;9.910;2023-05-07T00:37:13;13.87;;;9.20;;
38901;SDS011;24661;53.566;9.910;2023-05-07T00:39:38;12.43;;;9.33;;
38901;SDS011;24661;53.566;9.910;2023-05-07T00:42:04;12.30;;;9.23;;
38901;SDS011;24661;53.566;9.910;2023-05-07T00:44:29;12.63;;;9.30;;
38901;SDS011;24661;53.566;9.910;2023-05-07T00:46:55;12.80;;;8.67;;
38901;SDS011;24661;53.566;9.910;2023-05-07T00:49:22;11.17;;;8.53;;
38901;SDS011;24661;53.566;9.910;2023-05-07T00:52:02;10.37;;;7.93;;
38901;SDS011;24661;53.566;9.910;2023-05-07T00:54:28;12.00;;;9.60;;
38901;SDS011;24661;53.566;9.910;2023-05-07T00:56:54;15.63;;;9.50;;
38901;SDS011;24661;53.566;9.910;2023-05-07T00:59:20;10.90;;;8.50;;
38901;SDS011;24661;53.566;9.910;2023-05-07T01:01:45;11.43;;;7.77;;
38901;SDS011;24661;53.566;9.910;2023-05-07T01:04:11;10.77;;;8.10;;
38901;SDS011;24661;53.566;9.910;2023-05-07T01:06:36;10.43;;;7.73;;
38901;SDS011;24661;53.566;9.910;2023-05-07T01:09:03;10.37;;;7.40;;
38901;SDS011;24661;53.566;9.910;2023-05-07T01:11:29;9.10;;;7.97;;
38901;SDS011;24661;53.566;9.910;2023-05-07T01:13:55;9.47;;;7.20;;
38901;SDS011;24661;53.566;9.910;2023-05-07T01:16:23;10.90;;;7.93;;
38901;SDS011;24661;53.566;9.910;2023-05-07T01:18:48;12.50;;;8.97;;
38901;SDS011;24661;53.566;9.910;2023-05-07T01:21:15;13.27;;;9.20;;
38901;SDS011;24661;53.566;9.910;2023-05-07T01:23:42;13.17;;;8.77;;
38901;SDS011;24661;53.566;9.910;2023-05-07T01:26:10;10.87;;;8.00;;
38901;SDS011;24661;53.566;9.910;2023-05-07T01:28:35;12.27;;;9.00;;
38901;SDS011;24661;53.566;9.910;2023-05-07T01:31:02;10.00;;;8.07;;
38901;SDS011;24661;53.566;9.910;2023-05-07T01:33:29;10.87;;;8.37;;
38901;SDS011;24661;53.566;9.910;2023-05-07T01:35:58;8.97;;;6.70;;
38901;SDS011;24661;53.566;9.910;2023-05-07T01:38:27;9.87;;;8.20;;
38901;SDS011;24661;53.566;9.910;2023-05-07T01:40:53;7.87;;;6.70;;
38901;SDS011;24661;53.566;9.910;2023-05-07T01:43:19;9.27;;;7.30;;
38901;SDS011;24661;53.566;9.910;2023-05-07T01:45:45;8.07;;;6.97;;
38901;SDS011;24661;53.566;9.910;2023-05-07T01:48:12;14.93;;;8.07;;
38901;SDS011;24661;53.566;9.910;2023-05-07T01:50:39;11.83;;;7.27;;
38901;SDS011;24661;53.566;9.910;2023-05-07T01:53:05;9.07;;;7.70;;
38901;SDS011;24661;53.566;9.910;2023-05-07T01:55:31;9.50;;;7.03;;
38901;SDS011;24661;53.566;9.910;2023-05-07T01:57:56;8.77;;;7.13;;
38901;SDS011;24661;53.566;9.910;2023-05-07T02:00:22;9.13;;;6.67;;
38901;SDS011;24661;53.566;9.910;2023-05-07T02:02:48;8.70;;;7.20;;
38901;SDS011;24661;53.566;9.910;2023-05-07T02:05:13;10.97;;;6.47;;
38901;SDS011;24661;53.566;9.910;2023-05-07T02:07:39;7.67;;;6.40;;
38901;SDS011;24661;53.566;9.910;2023-05-07T02:10:05;8.50;;;6.83;;
38901;SDS011;24661;53.566;9.910;2023-05-07T02:12:31;7.77;;;6.57;;
38901;SDS011;24661;53.566;9.910;2023-05-07T02:14:56;8.30;;;6.77;;
38901;SDS011;24661;53.566;9.910;2023-05-07T02:17:22;9.27;;;6.70;;
38901;SDS011;24661;53.566;9.910;2023-05-07T02:19:47;8.47;;;7.17;;
38901;SDS011;24661;53.566;9.910;2023-05-07T02:22:13;8.23;;;6.70;;
38901;SDS011;24661;53.566;9.910;2023-05-07T02:24:38;9.60;;;7.27;;
38901;SDS011;24661;53.566;9.910;2023-05-07T02:27:04;9.50;;;7.00;;
38901;SDS011;24661;53.566;9.910;2023-05-07T02:29:30;8.53;;;6.67;;
38901;SDS011;24661;53.566;9.910;2023-05-07T02:31:55;9.77;;;7.47;;
38901;SDS011;24661;53.566;9.910;2023-05-07T02:34:21;8.73;;;7.43;;
38901;SDS011;24661;53.566;9.910;2023-05-07T02:36:46;11.77;;;7.90;;
38901;SDS011;24661;53.566;9.910;2023-05-07T02:39:12;10.07;;;7.67;;
38901;SDS011;24661;53.566;9.910;2023-05-07T02:41:38;11.00;;;8.27;;
38901;SDS011;24661;53.566;9.910;2023-05-07T02:44:05;10.43;;;7.70;;
38901;SDS011;24661;53.566;9.910;2023-05-07T02:46:31;9.23;;;7.43;;
38901;SDS011;24661;53.566;9.910;2023-05-07T02:48:56;12.23;;;7.53;;
38901;SDS011;24661;53.566;9.910;2023-05-07T02:51:22;10.17;;;7.63;;
38901;SDS011;24661;53.566;9.910;2023-05-07T02:53:48;9.07;;;7.23;;
38901;SDS011;24661;53.566;9.910;2023-05-07T02:56:14;8.87;;;7.10;;
38901;SDS011;24661;53.566;9.910;2023-05-07T02:58:39;9.07;;;7.63;;
38901;SDS011;24661;53.566;9.910;2023-05-07T03:01:06;9.97;;;7.63;;
38901;SDS011;24661;53.566;9.910;2023-05-07T03:03:34;12.03;;;8.23;;
38901;SDS011;24661;53.566;9.910;2023-05-07T03:06:00;11.60;;;7.60;;
38901;SDS011;24661;53.566;9.910;2023-05-07T03:08:26;14.23;;;8.70;;
38901;SDS011;24661;53.566;9.910;2023-05-07T03:10:51;12.23;;;8.47;;
38901;SDS011;24661;53.566;9.910;2023-05-07T03:13:17;12.07;;;8.00;;
38901;SDS011;24661;53.566;9.910;2023-05-07T03:15:43;12.40;;;7.87;;
38901;SDS011;24661;53.566;9.910;2023-05-07T03:18:08;10.07;;;7.47;;
38901;SDS011;24661;53.566;9.910;2023-05-07T03:20:34;10.17;;;7.47;;
38901;SDS011;24661;53.566;9.910;2023-05-07T03:23:01;10.13;;;8.10;;
38901;SDS011;24661;53.566;9.910;2023-05-07T03:25:27;12.33;;;8.70;;
38901;SDS011;24661;53.566;9.910;2023-05-07T03:27:52;12.50;;;8.80;;
38901;SDS011;24661;53.566;9.910;2023-05-07T03:30:18;12.43;;;8.37;;
38901;SDS011;24661;53.566;9.910;2023-05-07T03:32:43;11.80;;;8.40;;
38901;SDS011;24661;53.566;9.910;2023-05-07T03:35:09;13.73;;;9.10;;
38901;SDS011;24661;53.566;9.910;2023-05-07T03:37:35;13.00;;;8.63;;
38901;SDS011;24661;53.566;9.910;2023-05-07T03:40:00;15.13;;;8.83;;
38901;SDS011;24661;53.566;9.910;2023-05-07T03:42:26;16.40;;;9.10;;
38901;SDS011;24661;53.566;9.910;2023-05-07T03:44:54;12.77;;;9.67;;
38901;SDS011;24661;53.566;9.910;2023-05-07T03:47:20;11.30;;;8.20;;
38901;SDS011;24661;53.566;9.910;2023-05-07T03:49:45;16.53;;;9.70;;
38901;SDS011;24661;53.566;9.910;2023-05-07T03:52:11;13.37;;;8.97;;
38901;SDS011;24661;53.566;9.910;2023-05-07T03:54:37;12.23;;;8.13;;
38901;SDS011;24661;53.566;9.910;2023-05-07T03:57:02;13.77;;;8.83;;
38901;SDS011;24661;53.566;9.910;2023-05-07T03:59:28;11.27;;;8.77;;
38901;SDS011;24661;53.566;9.910;2023-05-07T04:01:53;16.07;;;8.47;;
38901;SDS011;24661;53.566;9.910;2023-05-07T04:04:19;11.33;;;7.87;;
38901;SDS011;24661;53.566;9.910;2023-05-07T04:06:45;10.73;;;8.17;;
38901;SDS011;24661;53.566;9.910;2023-05-07T04:09:10;10.93;;;8.47;;
38901;SDS011;24661;53.566;9.910;2023-05-07T04:11:36;12.63;;;9.33;;
38901;SDS011;24661;53.566;9.910;2023-05-07T04:14:01;11.47;;;7.80;;
38901;SDS011;24661;53.566;9.910;2023-05-07T04:16:27;13.53;;;9.13;;
38901;SDS011;24661;53.566;9.910;2023-05-07T04:18:52;10.73;;;8.73;;
38901;SDS011;24661;53.566;9.910;2023-05-07T04:21:18;11.30;;;8.77;;
38901;SDS011;24661;53.566;9.910;2023-05-07T04:23:45;10.27;;;8.10;;
38901;SDS011;24661;53.566;9.910;2023-05-07T04:26:11;10.83;;;7.57;;
38901;SDS011;24661;53.566;9.910;2023-05-07T04:28:38;10.67;;;7.60;;
38901;SDS011;24661;53.566;9.910;2023-05-07T04:31:04;12.77;;;9.13;;
38901;SDS011;24661;53.566;9.910;2023-05-07T04:33:30;11.80;;;8.90;;
38901;SDS011;24661;53.566;9.910;2023-05-07T04:35:56;11.13;;;8.50;;
38901;SDS011;24661;53.566;9.910;2023-05-07T04:38:21;14.17;;;8.53;;
38901;SDS011;24661;53.566;9.910;2023-05-07T04:40:48;12.80;;;9.80;;
38901;SDS011;24661;53.566;9.910;2023-05-07T04:43:14;14.53;;;9.23;;
38901;SDS011;24661;53.566;9.910;2023-05-07T04:45:41;11.53;;;8.57;;
38901;SDS011;24661;53.566;9.910;2023-05-07T04:48:06;11.67;;;9.30;;
38901;SDS011;24661;53.566;9.910;2023-05-07T04:50:33;11.43;;;7.90;;
38901;SDS011;24661;53.566;9.910;2023-05-07T04:52:59;12.93;;;9.20;;
38901;SDS011;24661;53.566;9.910;2023-05-07T04:55:24;11.33;;;8.57;;
38901;SDS011;24661;53.566;9.910;2023-05-07T04:57:50;9.67;;;7.40;;
38901;SDS011;24661;53.566;9.910;2023-05-07T05:00:16;10.97;;;8.10;;
38901;SDS011;24661;53.566;9.910;2023-05-07T05:02:44;10.73;;;7.80;;
38901;SDS011;24661;53.566;9.910;2023-05-07T05:05:10;10.33;;;8.23;;
38901;SDS011;24661;53.566;9.910;2023-05-07T05:07:36;10.27;;;7.43;;
38901;SDS011;24661;53.566;9.910;2023-05-07T05:10:02;10.97;;;7.87;;
38901;SDS011;24661;53.566;9.910;2023-05-07T05:12:28;10.03;;;7.80;;
38901;SDS011;24661;53.566;9.910;2023-05-07T05:14:54;10.23;;;7.67;;
38901;SDS011;24661;53.566;9.910;2023-05-07T05:17:20;11.63;;;8.27;;
38901;SDS011;24661;53.566;9.910;2023-05-07T05:19:45;8.63;;;7.17;;
38901;SDS011;24661;53.566;9.910;2023-05-07T05:22:11;11.53;;;7.87;;
38901;SDS011;24661;53.566;9.910;2023-05-07T05:24:37;11.33;;;7.80;;
38901;SDS011;24661;53.566;9.910;2023-05-07T05:27:02;9.97;;;7.13;;
38901;SDS011;24661;53.566;9.910;2023-05-07T05:29:28;10.77;;;7.33;;
38901;SDS011;24661;53.566;9.910;2023-05-07T05:31:53;10.13;;;7.50;;
38901;SDS011;24661;53.566;9.910;2023-05-07T05:34:19;10.00;;;7.30;;
38901;SDS011;24661;53.566;9.910;2023-05-07T05:36:45;9.23;;;7.30;;
38901;SDS011;24661;53.566;9.910;2023-05-07T05:39:10;10.77;;;7.53;;
38901;SDS011;24661;53.566;9.910;2023-05-07T05:41:36;10.90;;;7.70;;
38901;SDS011;24661;53.566;9.910;2023-05-07T05:44:02;12.70;;;8.77;;
38901;SDS011;24661;53.566;9.910;2023-05-07T05:46:27;12.83;;;8.00;;
38901;SDS011;24661;53.566;9.910;2023-05-07T05:48:53;12.00;;;8.17;;
38901;SDS011;24661;53.566;9.910;2023-05-07T05:51:18;11.83;;;7.80;;
38901;SDS011;24661;53.566;9.910;2023-05-07T05:53:45;10.50;;;8.43;;
38901;SDS011;24661;53.566;9.910;2023-05-07T05:56:11;10.70;;;7.70;;
38901;SDS011;24661;53.566;9.910;2023-05-07T05:58:36;12.27;;;6.87;;
38901;SDS011;24661;53.566;9.910;2023-05-07T06:01:02;11.03;;;7.57;;
38901;SDS011;24661;53.566;9.910;2023-05-07T06:03:28;11.03;;;7.73;;
38901;SDS011;24661;53.566;9.910;2023-05-07T06:05:53;12.13;;;8.07;;
38901;SDS011;24661;53.566;9.910;2023-05-07T06:08:19;9.43;;;7.40;;
38901;SDS011;24661;53.566;9.910;2023-05-07T06:10:44;12.67;;;8.17;;
38901;SDS011;24661;53.566;9.910;2023-05-07T06:13:10;11.50;;;8.33;;
38901;SDS011;24661;53.566;9.910;2023-05-07T06:15:36;10.80;;;7.77;;
38901;SDS011;24661;53.566;9.910;2023-05-07T06:18:01;10.20;;;7.47;;
38901;SDS011;24661;53.566;9.910;2023-05-07T06:20:27;13.70;;;7.70;;
38901;SDS011;24661;53.566;9.910;2023-05-07T06:22:53;9.73;;;7.13;;
38901;SDS011;24661;53.566;9.910;2023-05-07T06:25:19;11.17;;;7.97;;
38901;SDS011;24661;53.566;9.910;2023-05-07T06:27:45;11.10;;;8.40;;
38901;SDS011;24661;53.566;9.910;2023-05-07T06:30:10;9.37;;;7.10;;
38901;SDS011;24661;53.566;9.910;2023-05-07T06:32:36;9.67;;;7.27;;
38901;SDS011;24661;53.566;9.910;2023-05-07T06:35:02;10.23;;;7.50;;
38901;SDS011;24661;53.566;9.910;2023-05-07T06:37:27;8.80;;;6.77;;
38901;SDS011;24661;53.566;9.910;2023-05-07T06:39:53;8.83;;;7.27;;
38901;SDS011;24661;53.566;9.910;2023-05-07T06:42:19;9.43;;;7.33;;
38901;SDS011;24661;53.566;9.910;2023-05-07T06:44:44;10.27;;;7.67;;
38901;SDS011;24661;53.566;9.910;2023-05-07T06:47:10;10.67;;;7.07;;
38901;SDS011;24661;53.566;9.910;2023-05-07T06:49:35;9.53;;;7.17;;
38901;SDS011;24661;53.566;9.910;2023-05-07T06:52:02;12.40;;;7.63;;
38901;SDS011;24661;53.566;9.910;2023-05-07T06:54:28;11.87;;;7.93;;
38901;SDS011;24661;53.566;9.910;2023-05-07T06:56:54;8.63;;;6.50;;
38901;SDS011;24661;53.566;9.910;2023-05-07T06:59:20;10.70;;;7.07;;
38901;SDS011;24661;53.566;9.910;2023-05-07T07:01:45;10.47;;;7.80;;
38901;SDS011;24661;53.566;9.910;2023-05-07T07:04:11;9.07;;;7.23;;
38901;SDS011;24661;53.566;9.910;2023-05-07T07:06:36;8.87;;;6.93;;
38901;SDS011;24661;53.566;9.910;2023-05-07T07:09:02;7.87;;;6.60;;
38901;SDS011;24661;53.566;9.910;2023-05-07T07:11:27;9.40;;;7.33;;
38901;SDS011;24661;53.566;9.910;2023-05-07T07:13:53;8.33;;;6.87;;
38901;SDS011;24661;53.566;9.910;2023-05-07T07:16:19;9.37;;;7.07;;
38901;SDS011;24661;53.566;9.910;2023-05-07T07:18:46;10.87;;;7.67;;
38901;SDS011;24661;53.566;9.910;2023-05-07T07:21:11;9.73;;;7.50;;
38901;SDS011;24661;53.566;9.910;2023-05-07T07:23:37;10.60;;;7.00;;
38901;SDS011;24661;53.566;9.910;2023-05-07T07:26:03;11.07;;;7.57;;
38901;SDS011;24661;53.566;9.910;2023-05-07T07:28:28;9.57;;;6.13;;
38901;SDS011;24661;53.566;9.910;2023-05-07T07:30:54;9.97;;;8.00;;
38901;SDS011;24661;53.566;9.910;2023-05-07T07:33:19;8.37;;;5.83;;
38901;SDS011;24661;53.566;9.910;2023-05-07T07:35:45;11.93;;;6.40;;
38901;SDS011;24661;53.566;9.910;2023-05-07T07:38:10;8.73;;;5.37;;
38901;SDS011;24661;53.566;9.910;2023-05-07T07:40:36;7.63;;;5.93;;
38901;SDS011;24661;53.566;9.910;2023-05-07T07:43:02;9.93;;;6.33;;
38901;SDS011;24661;53.566;9.910;2023-05-07T07:45:27;7.87;;;6.10;;
38901;SDS011;24661;53.566;9.910;2023-05-07T07:47:54;9.73;;;6.30;;
38901;SDS011;24661;53.566;9.910;2023-05-07T07:50:19;8.77;;;6.50;;
38901;SDS011;24661;53.566;9.910;2023-05-07T07:52:45;7.33;;;5.80;;
38901;SDS011;24661;53.566;9.910;2023-05-07T07:55:11;9.97;;;6.60;;
38901;SDS011;24661;53.566;9.910;2023-05-07T07:57:37;8.20;;;6.17;;
38901;SDS011;24661;53.566;9.910;2023-05-07T08:00:02;6.67;;;5.50;;
38901;SDS011;24661;53.566;9.910;2023-05-07T08:02:28;7.10;;;5.47;;
38901;SDS011;24661;53.566;9.910;2023-05-07T08:04:54;7.97;;;5.97;;
38901;SDS011;24661;53.566;9.910;2023-05-07T08:07:20;6.60;;;5.13;;
38901;SDS011;24661;53.566;9.910;2023-05-07T08:09:47;8.03;;;5.60;;
38901;SDS011;24661;53.566;9.910;2023-05-07T08:12:13;6.57;;;5.27;;
38901;SDS011;24661;53.566;9.910;2023-05-07T08:14:38;8.80;;;5.73;;
38901;SDS011;24661;53.566;9.910;2023-05-07T08:17:04;8.00;;;5.80;;
38901;SDS011;24661;53.566;9.910;2023-05-07T08:19:30;8.53;;;5.97;;
38901;SDS011;24661;53.566;9.910;2023-05-07T08:21:55;7.00;;;5.50;;
38901;SDS011;24661;53.566;9.910;2023-05-07T08:24:21;7.73;;;6.30;;
38901;SDS011;24661;53.566;9.910;2023-05-07T08:26:46;7.50;;;5.57;;
38901;SDS011;24661;53.566;9.910;2023-05-07T08:29:12;6.30;;;4.83;;
38901;SDS011;24661;53.566;9.910;2023-05-07T08:31:37;7.47;;;5.17;;
38901;SDS011;24661;53.566;9.910;2023-05-07T08:34:04;6.60;;;5.20;;
38901;SDS011;24661;53.566;9.910;2023-05-07T08:36:31;10.87;;;6.40;;
38901;SDS011;24661;53.566;9.910;2023-05-07T08:38:57;5.83;;;5.20;;
38901;SDS011;24661;53.566;9.910;2023-05-07T08:41:23;8.70;;;5.43;;
38901;SDS011;24661;53.566;9.910;2023-05-07T08:43:49;6.23;;;5.43;;
38901;SDS011;24661;53.566;9.910;2023-05-07T08:46:16;7.13;;;5.57;;
38901;SDS011;24661;53.566;9.910;2023-05-07T08:48:44;9.03;;;5.30;;
38901;SDS011;24661;53.566;9.910;2023-05-07T08:51:12;7.60;;;5.50;;
38901;SDS011;24661;53.566;9.910;2023-05-07T08:53:40;7.90;;;5.50;;
38901;SDS011;24661;53.566;9.910;2023-05-07T08:56:07;7.57;;;5.37;;
38901;SDS011;24661;53.566;9.910;2023-05-07T08:58:34;7.60;;;5.30;;
38901;SDS011;24661;53.566;9.910;2023-05-07T09:01:01;10.90;;;5.53;;
38901;SDS011;24661;53.566;9.910;2023-05-07T09:03:31;7.47;;;5.00;;
38901;SDS011;24661;53.566;9.910;2023-05-07T09:05:57;7.33;;;5.77;;
38901;SDS011;24661;53.566;9.910;2023-05-07T09:08:24;10.27;;;5.83;;
38901;SDS011;24661;53.566;9.910;2023-05-07T09:10:51;7.10;;;5.63;;
38901;SDS011;24661;53.566;9.910;2023-05-07T09:13:17;8.17;;;6.07;;
38901;SDS011;24661;53.566;9.910;2023-05-07T09:15:43;8.23;;;5.40;;
38901;SDS011;24661;53.566;9.910;2023-05-07T09:18:08;8.70;;;6.07;;
38901;SDS011;24661;53.566;9.910;2023-05-07T09:20:36;7.97;;;5.83;;
38901;SDS011;24661;53.566;9.910;2023-05-07T09:23:02;8.10;;;5.83;;
38901;SDS011;24661;53.566;9.910;2023-05-07T09:25:31;6.10;;;5.50;;
38901;SDS011;24661;53.566;9.910;2023-05-07T09:27:58;7.70;;;6.43;;
38901;SDS011;24661;53.566;9.910;2023-05-07T09:30:27;7.37;;;5.33;;
38901;SDS011;24661;53.566;9.910;2023-05-07T09:32:57;8.77;;;5.80;;
38901;SDS011;24661;53.566;9.910;2023-05-07T09:35:24;5.97;;;5.13;;
38901;SDS011;24661;53.566;9.910;2023-05-07T09:37:55;6.97;;;5.57;;
38901;SDS011;24661;53.566;9.910;2023-05-07T09:40:23;6.47;;;5.30;;
38901;SDS011;24661;53.566;9.910;2023-05-07T09:42:50;8.67;;;4.77;;
38901;SDS011;24661;53.566;9.910;2023-05-07T09:45:21;6.30;;;5.37;;
38901;SDS011;24661;53.566;9.910;2023-05-07T09:47:55;5.63;;;5.03;;
38901;SDS011;24661;53.566;9.910;2023-05-07T09:50:26;6.03;;;4.70;;
38901;SDS011;24661;53.566;9.910;2023-05-07T09:52:55;6.50;;;4.80;;
38901;SDS011;24661;53.566;9.910;2023-05-07T09:55:22;5.70;;;4.30;;
38901;SDS011;24661;53.566;9.910;2023-05-07T09:57:50;5.77;;;4.83;;
38901;SDS011;24661;53.566;9.910;2023-05-07T10:00:18;4.83;;;4.33;;
38901;SDS011;24661;53.566;9.910;2023-05-07T10:02:45;6.43;;;5.50;;
38901;SDS011;24661;53.566;9.910;2023-05-07T10:05:17;6.27;;;5.67;;
38901;SDS011;24661;53.566;9.910;2023-05-07T10:07:45;5.30;;;4.80;;
38901;SDS011;24661;53.566;9.910;2023-05-07T10:10:11;10.23;;;5.07;;
38901;SDS011;24661;53.566;9.910;2023-05-07T10:12:38;7.10;;;5.27;;
38901;SDS011;24661;53.566;9.910;2023-05-07T10:15:08;6.63;;;4.73;;
38901;SDS011;24661;53.566;9.910;2023-05-07T10:17:37;6.80;;;5.23;;
38901;SDS011;24661;53.566;9.910;2023-05-07T10:20:07;6.03;;;5.20;;
38901;SDS011;24661;53.566;9.910;2023-05-07T10:22:51;6.73;;;4.73;;
38901;SDS011;24661;53.566;9.910;2023-05-07T10:25:25;7.43;;;5.97;;
38901;SDS011;24661;53.566;9.910;2023-05-07T10:27:54;6.17;;;5.50;;
38901;SDS011;24661;53.566;9.910;2023-05-07T10:32:51;5.67;;;4.60;;
38901;SDS011;24661;53.566;9.910;2023-05-07T10:35:21;5.60;;;4.97;;
38901;SDS011;24661;53.566;9.910;2023-05-07T10:37:50;6.67;;;4.83;;
38901;SDS011;24661;53.566;9.910;2023-05-07T10:40:16;8.47;;;5.23;;
38901;SDS011;24661;53.566;9.910;2023-05-07T10:42:57;6.77;;;5.30;;
38901;SDS011;24661;53.566;9.910;2023-05-07T10:45:25;7.57;;;4.87;;
38901;SDS011;24661;53.566;9.910;2023-05-07T10:50:40;7.63;;;4.90;;
38901;SDS011;24661;53.566;9.910;2023-05-07T10:53:20;8.80;;;5.00;;
38901;SDS011;24661;53.566;9.910;2023-05-07T10:58:22;9.17;;;4.90;;
38901;SDS011;24661;53.566;9.910;2023-05-07T11:00:57;4.80;;;4.37;;
38901;SDS011;24661;53.566;9.910;2023-05-07T11:03:25;6.37;;;4.40;;
38901;SDS011;24661;53.566;9.910;2023-05-07T11:06:11;13.93;;;5.17;;
38901;SDS011;24661;53.566;9.910;2023-05-07T11:08:56;4.83;;;4.20;;
38901;SDS011;24661;53.566;9.910;2023-05-07T11:17:10;5.37;;;4.07;;
38901;SDS011;24661;53.566;9.910;2023-05-07T11:19:49;5.37;;;4.53;;
38901;SDS011;24661;53.566;9.910;2023-05-07T11:24:57;5.80;;;4.53;;
38901;SDS011;24661;53.566;9.910;2023-05-07T11:27:27;4.87;;;4.23;;
38901;SDS011;24661;53.566;9.910;2023-05-07T11:29:54;4.73;;;4.13;;
38901;SDS011;24661;53.566;9.910;2023-05-07T11:32:27;5.20;;;4.70;;
38901;SDS011;24661;53.566;9.910;2023-05-07T11:34:55;4.60;;;4.13;;
38901;SDS011;24661;53.566;9.910;2023-05-07T11:37:22;6.90;;;4.90;;
38901;SDS011;24661;53.566;9.910;2023-05-07T11:39:48;7.83;;;4.33;;
38901;SDS011;24661;53.566;9.910;2023-05-07T11:44:53;5.23;;;4.60;;
38901;SDS011;24661;53.566;9.910;2023-05-07T11:47:19;6.47;;;4.30;;
38901;SDS011;24661;53.566;9.910;2023-05-07T11:49:52;8.00;;;4.63;;
38901;SDS011;24661;53.566;9.910;2023-05-07T11:52:19;7.17;;;4.10;;
38901;SDS011;24661;53.566;9.910;2023-05-07T11:54:49;5.13;;;4.27;;
38901;SDS011;24661;53.566;9.910;2023-05-07T11:57:15;4.93;;;4.43;;
38901;SDS011;24661;53.566;9.910;2023-05-07T11:59:42;5.43;;;3.93;;
38901;SDS011;24661;53.566;9.910;2023-05-07T12:02:09;4.63;;;4.07;;
38901;SDS011;24661;53.566;9.910;2023-05-07T12:04:35;4.30;;;3.90;;
38901;SDS011;24661;53.566;9.910;2023-05-07T12:07:03;5.80;;;4.47;;
38901;SDS011;24661;53.566;9.910;2023-05-07T12:09:28;6.67;;;3.77;;
38901;SDS011;24661;53.566;9.910;2023-05-07T12:11:54;20.30;;;9.67;;
38901;SDS011;24661;53.566;9.910;2023-05-07T12:14:21;6.83;;;4.77;;
38901;SDS011;24661;53.566;9.910;2023-05-07T12:16:46;7.30;;;4.50;;
38901;SDS011;24661;53.566;9.910;2023-05-07T12:19:12;5.20;;;4.23;;
38901;SDS011;24661;53.566;9.910;2023-05-07T12:21:39;5.63;;;4.40;;
38901;SDS011;24661;53.566;9.910;2023-05-07T12:24:06;4.97;;;3.90;;
38901;SDS011;24661;53.566;9.910;2023-05-07T12:26:33;4.33;;;3.93;;
38901;SDS011;24661;53.566;9.910;2023-05-07T12:29:03;5.33;;;4.00;;
38901;SDS011;24661;53.566;9.910;2023-05-07T12:31:28;6.80;;;4.00;;
38901;SDS011;24661;53.566;9.910;2023-05-07T12:33:54;4.07;;;3.67;;
38901;SDS011;24661;53.566;9.910;2023-05-07T12:36:19;3.63;;;3.10;;
38901;SDS011;24661;53.566;9.910;2023-05-07T12:38:46;3.80;;;3.50;;
38901;SDS011;24661;53.566;9.910;2023-05-07T12:41:15;4.40;;;3.20;;
38901;SDS011;24661;53.566;9.910;2023-05-07T12:43:43;5.27;;;3.50;;
38901;SDS011;24661;53.566;9.910;2023-05-07T12:46:09;4.30;;;3.23;;
38901;SDS011;24661;53.566;9.910;2023-05-07T12:48:36;3.13;;;2.83;;
38901;SDS011;24661;53.566;9.910;2023-05-07T12:51:02;7.33;;;3.50;;
38901;SDS011;24661;53.566;9.910;2023-05-07T12:53:30;3.43;;;3.00;;
38901;SDS011;24661;53.566;9.910;2023-05-07T12:55:56;3.47;;;3.17;;
38901;SDS011;24661;53.566;9.910;2023-05-07T13:00:53;4.77;;;3.93;;
38901;SDS011;24661;53.566;9.910;2023-05-07T13:03:33;3.10;;;2.80;;
38901;SDS011;24661;53.566;9.910;2023-05-07T13:06:00;4.97;;;3.27;;
38901;SDS011;24661;53.566;9.910;2023-05-07T13:08:28;4.57;;;2.93;;
38901;SDS011;24661;53.566;9.910;2023-05-07T13:10:59;4.37;;;3.20;;
38901;SDS011;24661;53.566;9.910;2023-05-07T13:13:30;4.53;;;3.53;;
38901;SDS011;24661;53.566;9.910;2023-05-07T13:15:56;5.43;;;2.90;;
38901;SDS011;24661;53.566;9.910;2023-05-07T13:18:22;3.63;;;3.23;;
38901;SDS011;24661;53.566;9.910;2023-05-07T13:20:49;4.00;;;3.53;;
38901;SDS011;24661;53.566;9.910;2023-05-07T13:23:14;5.13;;;2.97;;
38901;SDS011;24661;53.566;9.910;2023-05-07T13:25:40;3.20;;;2.90;;
38901;SDS011;24661;53.566;9.910;2023-05-07T13:28:05;6.37;;;3.43;;
38901;SDS011;24661;53.566;9.910;2023-05-07T13:30:31;3.47;;;2.90;;
38901;SDS011;24661;53.566;9.910;2023-05-07T13:32:57;2.73;;;2.50;;
38901;SDS011;24661;53.566;9.910;2023-05-07T13:35:22;3.83;;;3.13;;
38901;SDS011;24661;53.566;9.910;2023-05-07T13:37:48;4.37;;;2.60;;
38901;SDS011;24661;53.566;9.910;2023-05-07T13:40:14;3.30;;;2.70;;
38901;SDS011;24661;53.566;9.910;2023-05-07T13:42:40;3.37;;;2.53;;
38901;SDS011;24661;53.566;9.910;2023-05-07T13:45:06;3.30;;;3.00;;
38901;SDS011;24661;53.566;9.910;2023-05-07T13:47:32;3.27;;;2.70;;
38901;SDS011;24661;53.566;9.910;2023-05-07T13:49:58;2.73;;;2.30;;
38901;SDS011;24661;53.566;9.910;2023-05-07T13:52:23;6.97;;;2.70;;
38901;SDS011;24661;53.566;9.910;2023-05-07T13:54:49;4.47;;;2.33;;
38901;SDS011;24661;53.566;9.910;2023-05-07T13:57:17;4.67;;;2.90;;
38901;SDS011;24661;53.566;9.910;2023-05-07T13:59:43;3.70;;;2.33;;
38901;SDS011;24661;53.566;9.910;2023-05-07T14:02:09;4.43;;;2.27;;
38901;SDS011;24661;53.566;9.910;2023-05-07T14:04:35;3.03;;;2.80;;
38901;SDS011;24661;53.566;9.910;2023-05-07T14:07:02;3.23;;;2.17;;
38901;SDS011;24661;53.566;9.910;2023-05-07T14:09:28;4.10;;;2.40;;
38901;SDS011;24661;53.566;9.910;2023-05-07T14:11:53;4.23;;;2.80;;
38901;SDS011;24661;53.566;9.910;2023-05-07T14:14:19;3.93;;;2.63;;
38901;SDS011;24661;53.566;9.910;2023-05-07T14:16:44;4.00;;;2.60;;
38901;SDS011;24661;53.566;9.910;2023-05-07T14:19:11;5.97;;;2.60;;
38901;SDS011;24661;53.566;9.910;2023-05-07T14:21:37;2.93;;;2.43;;
38901;SDS011;24661;53.566;9.910;2023-05-07T14:24:02;3.13;;;2.77;;
38901;SDS011;24661;53.566;9.910;2023-05-07T14:26:28;5.63;;;4.30;;
38901;SDS011;24661;53.566;9.910;2023-05-07T14:28:54;2.83;;;2.23;;
38901;SDS011;24661;53.566;9.910;2023-05-07T14:31:22;3.03;;;2.53;;
38901;SDS011;24661;53.566;9.910;2023-05-07T14:33:48;2.80;;;2.50;;
38901;SDS011;24661;53.566;9.910;2023-05-07T14:36:15;2.43;;;2.20;;
38901;SDS011;24661;53.566;9.910;2023-05-07T14:38:48;2.40;;;2.20;;
38901;SDS011;24661;53.566;9.910;2023-05-07T14:41:13;2.47;;;1.77;;
38901;SDS011;24661;53.566;9.910;2023-05-07T14:43:39;2.50;;;2.00;;
38901;SDS011;24661;53.566;9.910;2023-05-07T14:46:05;3.00;;;2.17;;
38901;SDS011;24661;53.566;9.910;2023-05-07T14:48:31;2.60;;;1.93;;
38901;SDS011;24661;53.566;9.910;2023-05-07T14:50:56;2.00;;;1.90;;
38901;SDS011;24661;53.566;9.910;2023-05-07T14:53:24;3.30;;;2.13;;
38901;SDS011;24661;53.566;9.910;2023-05-07T14:55:50;2.80;;;2.20;;
38901;SDS011;24661;53.566;9.910;2023-05-07T14:58:15;3.60;;;2.23;;
38901;SDS011;24661;53.566;9.910;2023-05-07T15:00:41;4.13;;;2.33;;